Time;durP1;ratioP1;P1;durP2;ratioP2;P2;SDS_P1;SDS_P2;PMS_P1;PMS_P2;Temp;Humidity;BMP_temperature;BMP_pressure;BME280_temperature;BME280_humidity;BME280_pressure;Samples;Min_cycle;Max_cycle;Signal;HPM_P1;HPM_P2
2021/04/21 00:01:40;;;;;;;18.00;12.77;;;;;;;;;;4987558;28;20241;-70
2021/04/21 00:04:07;;;;;;;19.57;12.90;;;;;;;;;;4994972;28;20258;-70
2021/04/21 00:06:35;;;;;;;20.10;12.70;;;;;;;;;;4986110;28;20238;-70
2021/04/21 00:09:03;;;;;;;17.73;12.23;;;;;;;;;;5003844;28;20182;-69
2021/04/21 00:11:29;;;;;;;20.70;13.13;;;;;;;;;;4987120;28;20502;-70
2021/04/21 00:13:54;;;;;;;21.27;12.53;;;;;;;;;;5006177;28;20200;-70
2021/04/21 00:16:20;;;;;;;19.70;13.03;;;;;;;;;;4995331;28;20185;-70
2021/04/21 00:18:47;;;;;;;21.67;13.20;;;;;;;;;;4987791;28;20271;-70
2021/04/21 00:21:13;;;;;;;19.77;13.37;;;;;;;;;;4994321;28;20187;-70
2021/04/21 00:23:39;;;;;;;22.57;14.03;;;;;;;;;;4987746;28;20270;-71
2021/04/21 00:26:10;;;;;;;22.43;13.97;;;;;;;;;;4994712;28;20674;-70
2021/04/21 00:28:37;;;;;;;18.43;12.67;;;;;;;;;;4992013;28;20183;-69
2021/04/21 00:31:05;;;;;;;24.07;13.43;;;;;;;;;;4992643;28;20190;-69
2021/04/21 00:33:32;;;;;;;26.90;14.73;;;;;;;;;;4978870;28;20217;-69
2021/04/21 00:36:00;;;;;;;20.90;12.67;;;;;;;;;;4994168;28;20191;-70
2021/04/21 00:38:25;;;;;;;19.53;12.70;;;;;;;;;;4984300;28;20191;-71
2021/04/21 00:41:02;;;;;;;20.77;13.83;;;;;;;;;;4994771;28;20194;-70
2021/04/21 00:43:48;;;;;;;23.93;14.43;;;;;;;;;;4988524;28;20183;-69
2021/04/21 00:46:36;;;;;;;21.47;14.03;;;;;;;;;;4992288;28;20209;-70
2021/04/21 00:49:18;;;;;;;18.67;12.77;;;;;;;;;;4988852;28;20547;-70
2021/04/21 00:52:02;;;;;;;21.30;13.60;;;;;;;;;;5000231;28;20210;-70
2021/04/21 00:54:42;;;;;;;19.80;13.27;;;;;;;;;;4982206;28;20686;-70
2021/04/21 00:57:31;;;;;;;19.47;13.33;;;;;;;;;;4997014;28;20187;-70
2021/04/21 01:00:13;;;;;;;20.87;13.17;;;;;;;;;;4988632;28;20272;-70
2021/04/21 01:02:48;;;;;;;20.17;13.77;;;;;;;;;;4988808;28;20226;-70
2021/04/21 01:05:17;;;;;;;21.37;13.63;;;;;;;;;;4987966;28;20202;-69
2021/04/21 01:07:46;;;;;;;19.20;13.00;;;;;;;;;;5001703;28;20186;-70
2021/04/21 01:10:15;;;;;;;25.00;14.30;;;;;;;;;;4988056;28;20218;-70
2021/04/21 01:12:44;;;;;;;22.47;14.60;;;;;;;;;;5008308;28;20187;-70
2021/04/21 01:15:13;;;;;;;20.00;13.17;;;;;;;;;;4986102;28;20559;-70
2021/04/21 01:17:40;;;;;;;23.20;14.13;;;;;;;;;;4990267;28;20191;-70
2021/04/21 01:20:17;;;;;;;20.47;13.27;;;;;;;;;;4983466;28;20709;-70
2021/04/21 01:22:42;;;;;;;20.90;14.27;;;;;;;;;;4997541;28;20276;-71
2021/04/21 01:25:19;;;;;;;21.67;13.13;;;;;;;;;;5008871;28;20643;-70
2021/04/21 01:27:59;;;;;;;22.50;14.07;;;;;;;;;;4998269;28;20189;-70
2021/04/21 01:30:25;;;;;;;21.43;13.43;;;;;;;;;;4993998;28;20190;-69
2021/04/21 01:33:02;;;;;;;23.20;14.40;;;;;;;;;;4992771;28;20192;-70
2021/04/21 01:35:29;;;;;;;22.77;14.47;;;;;;;;;;4994867;28;20575;-70
2021/04/21 01:37:59;;;;;;;23.83;14.87;;;;;;;;;;4987185;28;20295;-70
2021/04/21 01:40:36;;;;;;;19.83;14.07;;;;;;;;;;4992495;28;20234;-70
2021/04/21 01:43:07;;;;;;;19.77;13.47;;;;;;;;;;4989475;28;20705;-70
2021/04/21 01:45:35;;;;;;;19.57;14.23;;;;;;;;;;4992587;28;20223;-69
2021/04/21 01:48:06;;;;;;;23.67;13.50;;;;;;;;;;4993159;28;20509;-70
2021/04/21 01:50:32;;;;;;;19.60;14.10;;;;;;;;;;4994786;28;20202;-70
2021/04/21 01:53:19;;;;;;;22.37;14.67;;;;;;;;;;4989254;28;20583;-70
2021/04/21 01:56:01;;;;;;;23.97;13.27;;;;;;;;;;4991187;28;20192;-69
2021/04/21 01:58:38;;;;;;;23.57;14.80;;;;;;;;;;4987495;28;20195;-69
2021/04/21 02:01:11;;;;;;;23.70;14.57;;;;;;;;;;4997578;28;20257;-70
2021/04/21 02:03:46;;;;;;;23.30;13.87;;;;;;;;;;4983881;28;20236;-70
2021/04/21 02:06:27;;;;;;;21.87;14.20;;;;;;;;;;4993449;28;20206;-70
2021/04/21 02:09:13;;;;;;;20.20;13.83;;;;;;;;;;4986110;28;20191;-71
2021/04/21 02:11:46;;;;;;;23.00;14.60;;;;;;;;;;4997259;28;20186;-70
2021/04/21 02:14:32;;;;;;;20.50;14.47;;;;;;;;;;4985095;28;20214;-70
2021/04/21 02:17:10;;;;;;;24.50;14.67;;;;;;;;;;4990339;28;20266;-70
2021/04/21 02:19:52;;;;;;;26.80;15.47;;;;;;;;;;4989391;28;20211;-70
2021/04/21 02:22:34;;;;;;;22.00;14.80;;;;;;;;;;4992718;28;20187;-70
2021/04/21 02:25:18;;;;;;;24.40;14.80;;;;;;;;;;4986245;28;20187;-70
2021/04/21 02:28:18;;;;;;;23.30;14.57;;;;;;;;;;4991768;28;20714;-70
2021/04/21 02:31:12;;;;;;;22.53;14.17;;;;;;;;;;4983370;28;20270;-70
2021/04/21 02:33:47;;;;;;;21.90;14.73;;;;;;;;;;4992970;28;20195;-70
2021/04/21 02:36:16;;;;;;;23.20;14.43;;;;;;;;;;4995441;28;20217;-70
2021/04/21 02:39:06;;;;;;;24.07;14.67;;;;;;;;;;4992339;28;20197;-70
2021/04/21 02:41:41;;;;;;;18.73;13.67;;;;;;;;;;4992504;28;20187;-69
2021/04/21 02:44:12;;;;;;;23.10;14.10;;;;;;;;;;4983941;28;20887;-70
2021/04/21 02:46:54;;;;;;;23.73;14.53;;;;;;;;;;4997652;28;20569;-71
2021/04/21 02:49:56;;;;;;;19.70;13.80;;;;;;;;;;4994057;28;20327;-70
2021/04/21 02:52:52;;;;;;;18.90;13.23;;;;;;;;;;4991706;28;20186;-70
2021/04/21 02:55:40;;;;;;;23.00;12.90;;;;;;;;;;4984449;28;20218;-70
2021/04/21 02:58:14;;;;;;;22.60;14.27;;;;;;;;;;4996210;28;20196;-70
2021/04/21 03:00:53;;;;;;;23.47;14.27;;;;;;;;;;4983348;28;20286;-71
2021/04/21 03:03:38;;;;;;;23.80;14.17;;;;;;;;;;4997980;28;20234;-70
2021/04/21 03:06:08;;;;;;;20.90;13.43;;;;;;;;;;4987911;28;20187;-70
2021/04/21 03:09:14;;;;;;;21.67;14.13;;;;;;;;;;4990229;28;20269;-69
2021/04/21 03:11:42;;;;;;;20.27;14.00;;;;;;;;;;4981233;28;20187;-70
2021/04/21 03:14:13;;;;;;;21.33;14.20;;;;;;;;;;4996409;28;20206;-70
2021/04/21 03:16:42;;;;;;;19.33;13.60;;;;;;;;;;4979652;28;20203;-71
2021/04/21 03:19:10;;;;;;;19.77;13.40;;;;;;;;;;4988962;28;20195;-71
2021/04/21 03:21:39;;;;;;;20.93;14.27;;;;;;;;;;4984624;28;20226;-70
2021/04/21 03:24:17;;;;;;;25.17;15.10;;;;;;;;;;4990131;28;20188;-71
2021/04/21 03:26:49;;;;;;;21.47;14.47;;;;;;;;;;4984623;28;20184;-70
2021/04/21 03:29:24;;;;;;;23.73;16.13;;;;;;;;;;4992745;28;20623;-70
2021/04/21 03:31:52;;;;;;;23.23;15.83;;;;;;;;;;4982276;28;20226;-70
2021/04/21 03:34:20;;;;;;;20.17;14.37;;;;;;;;;;4993802;28;20213;-70
2021/04/21 03:36:45;;;;;;;23.00;14.83;;;;;;;;;;4992846;28;20179;-70
2021/04/21 03:39:12;;;;;;;24.43;14.50;;;;;;;;;;4990404;28;20290;-70
2021/04/21 03:41:37;;;;;;;25.57;15.00;;;;;;;;;;4997545;28;20190;-70
2021/04/21 03:44:04;;;;;;;20.93;14.33;;;;;;;;;;4982179;28;20231;-70
2021/04/21 03:46:31;;;;;;;23.37;15.07;;;;;;;;;;4994935;28;20182;-70
2021/04/21 03:48:57;;;;;;;24.80;14.60;;;;;;;;;;4981371;28;20211;-70
2021/04/21 03:51:23;;;;;;;20.77;13.13;;;;;;;;;;4994195;28;20669;-70
2021/04/21 03:53:50;;;;;;;24.40;14.73;;;;;;;;;;4989355;28;20213;-69
2021/04/21 03:56:19;;;;;;;23.43;14.77;;;;;;;;;;4988575;28;20187;-69
2021/04/21 03:58:47;;;;;;;21.00;14.87;;;;;;;;;;4987996;28;20214;-70
2021/04/21 04:01:14;;;;;;;22.87;14.60;;;;;;;;;;4996421;28;20187;-70
2021/04/21 04:03:46;;;;;;;19.30;14.03;;;;;;;;;;4988967;28;20287;-70
2021/04/21 04:06:15;;;;;;;23.40;14.70;;;;;;;;;;4995040;28;20183;-70
2021/04/21 04:08:53;;;;;;;24.83;14.70;;;;;;;;;;4982000;28;20655;-70
2021/04/21 04:11:26;;;;;;;22.00;14.20;;;;;;;;;;4995737;28;20276;-71
2021/04/21 04:13:56;;;;;;;21.10;14.30;;;;;;;;;;4992460;28;20211;-70
2021/04/21 04:16:23;;;;;;;22.53;14.40;;;;;;;;;;4996833;28;20175;-70
2021/04/21 04:18:51;;;;;;;24.07;15.47;;;;;;;;;;4997150;28;20231;-70
2021/04/21 04:21:18;;;;;;;21.37;14.80;;;;;;;;;;4987289;28;20190;-70
2021/04/21 04:23:45;;;;;;;25.53;15.37;;;;;;;;;;5001480;28;20188;-70
2021/04/21 04:26:13;;;;;;;20.77;15.00;;;;;;;;;;4990116;28;20183;-70
2021/04/21 04:28:39;;;;;;;21.90;15.10;;;;;;;;;;4999056;28;20237;-70
2021/04/21 04:31:06;;;;;;;21.77;15.17;;;;;;;;;;4988360;28;20766;-70
2021/04/21 04:33:32;;;;;;;26.67;15.07;;;;;;;;;;4998796;28;20191;-70
2021/04/21 04:35:58;;;;;;;25.57;14.27;;;;;;;;;;4991313;28;20654;-70
2021/04/21 04:38:24;;;;;;;24.63;14.97;;;;;;;;;;4994801;28;20194;-71
2021/04/21 04:40:53;;;;;;;21.90;15.43;;;;;;;;;;4993182;28;20187;-71
2021/04/21 04:43:20;;;;;;;23.60;15.47;;;;;;;;;;4991932;28;20195;-70
2021/04/21 04:45:54;;;;;;;23.70;15.17;;;;;;;;;;4986146;28;20325;-70
2021/04/21 04:48:27;;;;;;;26.60;14.93;;;;;;;;;;4994458;28;20214;-70
2021/04/21 04:50:57;;;;;;;25.10;16.13;;;;;;;;;;4987952;28;22689;-70
2021/04/21 04:53:23;;;;;;;24.87;16.40;;;;;;;;;;4993673;28;20184;-70
2021/04/21 04:55:49;;;;;;;25.50;16.07;;;;;;;;;;4991571;28;20701;-70
2021/04/21 04:58:20;;;;;;;28.80;16.60;;;;;;;;;;4984410;28;20231;-70
2021/04/21 05:00:48;;;;;;;24.93;15.57;;;;;;;;;;4993861;28;20186;-70
2021/04/21 05:03:26;;;;;;;22.43;16.03;;;;;;;;;;4984729;28;20226;-70
2021/04/21 05:05:54;;;;;;;24.87;16.57;;;;;;;;;;4988077;28;20172;-70
2021/04/21 05:08:23;;;;;;;24.70;16.80;;;;;;;;;;4984730;28;20187;-70
2021/04/21 05:10:54;;;;;;;26.87;16.97;;;;;;;;;;4995865;28;20183;-70
2021/04/21 05:13:23;;;;;;;26.57;16.70;;;;;;;;;;4989943;28;20670;-70
2021/04/21 05:15:51;;;;;;;26.63;16.80;;;;;;;;;;4994716;28;20195;-70
2021/04/21 05:18:25;;;;;;;24.67;15.67;;;;;;;;;;4988289;28;20214;-70
2021/04/21 05:21:12;;;;;;;24.97;15.77;;;;;;;;;;4997352;28;20277;-71
2021/04/21 05:24:02;;;;;;;27.27;15.67;;;;;;;;;;4981085;28;20187;-70
2021/04/21 05:26:45;;;;;;;26.77;15.87;;;;;;;;;;4991374;28;20176;-70
2021/04/21 05:29:46;;;;;;;26.73;14.90;;;;;;;;;;4982037;28;20201;-70
2021/04/21 05:32:50;;;;;;;23.43;14.57;;;;;;;;;;4991545;28;20606;-70
2021/04/21 05:35:55;;;;;;;22.27;14.47;;;;;;;;;;4987447;28;20207;-70
2021/04/21 05:38:58;;;;;;;19.53;13.73;;;;;;;;;;4982372;28;20699;-70
2021/04/21 05:41:26;;;;;;;20.67;14.30;;;;;;;;;;4992647;28;20179;-70
2021/04/21 05:44:23;;;;;;;21.67;14.43;;;;;;;;;;4985786;28;20191;-70
2021/04/21 05:47:26;;;;;;;24.47;13.33;;;;;;;;;;4967400;28;20674;-70
2021/04/21 05:50:27;;;;;;;23.60;13.70;;;;;;;;;;4985086;28;20182;-69
2021/04/21 05:53:12;;;;;;;20.70;13.50;;;;;;;;;;4993816;28;20191;-70
2021/04/21 05:56:14;;;;;;;21.60;14.20;;;;;;;;;;4986417;28;20559;-70
2021/04/21 05:59:15;;;;;;;24.77;14.20;;;;;;;;;;4993242;28;20198;-71
2021/04/21 06:01:44;;;;;;;22.70;13.93;;;;;;;;;;4974540;28;20402;-70
2021/04/21 06:04:10;;;;;;;19.33;13.17;;;;;;;;;;4987441;28;20242;-69
2021/04/21 06:06:35;;;;;;;19.93;12.83;;;;;;;;;;4979207;28;20207;-70
2021/04/21 06:09:09;;;;;;;18.67;13.07;;;;;;;;;;4988308;28;20203;-71
2021/04/21 06:11:36;;;;;;;17.63;12.73;;;;;;;;;;4979033;28;20195;-70
2021/04/21 06:14:04;;;;;;;18.17;12.27;;;;;;;;;;4989362;28;20215;-70
2021/04/21 06:16:31;;;;;;;21.70;13.30;;;;;;;;;;4983063;28;20221;-70
2021/04/21 06:18:59;;;;;;;19.57;12.30;;;;;;;;;;4990169;28;20282;-70
2021/04/21 06:21:27;;;;;;;19.35;14.00;;;;;;;;;;4982363;28;20433;-70
2021/04/21 06:23:54;;;;;;;17.03;12.03;;;;;;;;;;4991436;28;20675;-69
2021/04/21 06:26:25;;;;;;;17.97;12.00;;;;;;;;;;4981562;28;20510;-70
2021/04/21 06:29:05;;;;;;;17.67;11.32;;;;;;;;;;4990589;28;20258;-70
2021/04/21 06:31:44;;;;;;;17.25;12.02;;;;;;;;;;4986410;28;20191;-70
2021/04/21 06:34:11;;;;;;;18.77;11.20;;;;;;;;;;5005844;28;20195;-70
2021/04/21 06:36:49;;;;;;;16.58;11.23;;;;;;;;;;4983605;28;20206;-70
2021/04/21 06:39:18;;;;;;;26.33;10.57;;;;;;;;;;4992892;28;20191;-70
2021/04/21 06:41:44;;;;;;;17.88;11.13;;;;;;;;;;4987016;28;20463;-70
2021/04/21 06:44:12;;;;;;;17.50;10.67;;;;;;;;;;4993177;28;20231;-70
2021/04/21 06:46:37;;;;;;;18.47;10.10;;;;;;;;;;4990895;28;20657;-70
2021/04/21 06:49:04;;;;;;;16.70;10.10;;;;;;;;;;4985504;28;20195;-70
2021/04/21 06:51:32;;;;;;;20.15;10.57;;;;;;;;;;5001350;28;20210;-70
2021/04/21 06:53:58;;;;;;;13.88;9.88;;;;;;;;;;4987092;28;20296;-70
2021/04/21 06:56:32;;;;;;;17.83;11.35;;;;;;;;;;4993862;28;20179;-70
2021/04/21 06:58:59;;;;;;;17.90;9.38;;;;;;;;;;4985335;28;20199;-70
2021/04/21 07:01:28;;;;;;;14.20;10.07;;;;;;;;;;5000373;28;20194;-70
2021/04/21 07:04:14;;;;;;;16.35;10.07;;;;;;;;;;4985422;28;20282;-70
2021/04/21 07:06:44;;;;;;;16.80;10.45;;;;;;;;;;5000977;28;20278;-70
2021/04/21 07:09:17;;;;;;;18.58;10.13;;;;;;;;;;4986534;28;20274;-70
2021/04/21 07:11:44;;;;;;;14.57;10.05;;;;;;;;;;4994450;28;20206;-70
2021/04/21 07:14:18;;;;;;;18.35;10.48;;;;;;;;;;4984556;28;20618;-70
2021/04/21 07:16:44;;;;;;;18.77;10.50;;;;;;;;;;4994514;28;20285;-70
2021/04/21 07:19:11;;;;;;;15.10;9.32;;;;;;;;;;4983095;28;20706;-70
2021/04/21 07:21:40;;;;;;;15.45;9.68;;;;;;;;;;4991709;28;20187;-70
2021/04/21 07:24:08;;;;;;;13.73;8.50;;;;;;;;;;4984271;28;20189;-70
2021/04/21 07:26:36;;;;;;;15.07;8.70;;;;;;;;;;5006053;28;20659;-70
2021/04/21 07:29:03;;;;;;;16.67;8.75;;;;;;;;;;4986267;28;20191;-70
2021/04/21 07:31:28;;;;;;;13.23;8.65;;;;;;;;;;4990796;28;20191;-70
2021/04/21 07:33:53;;;;;;;13.65;8.23;;;;;;;;;;4989082;28;20640;-70
2021/04/21 07:36:26;;;;;;;17.45;8.65;;;;;;;;;;4994737;28;20606;-70
2021/04/21 07:39:06;;;;;;;10.75;8.07;;;;;;;;;;4995118;28;20245;-70
2021/04/21 07:41:37;;;;;;;13.85;8.45;;;;;;;;;;4995987;28;20190;-70
2021/04/21 07:44:05;;;;;;;13.48;8.38;;;;;;;;;;4990427;28;20235;-70
2021/04/21 07:46:30;;;;;;;21.30;8.55;;;;;;;;;;4982472;28;20501;-70
2021/04/21 07:48:57;;;;;;;13.50;8.40;;;;;;;;;;4995876;28;20190;-71
2021/04/21 07:51:24;;;;;;;12.63;8.43;;;;;;;;;;4995104;28;20241;-71
2021/04/21 07:53:52;;;;;;;14.30;8.00;;;;;;;;;;4998911;28;20176;-70
2021/04/21 07:56:22;;;;;;;13.93;8.15;;;;;;;;;;4986622;28;20222;-71
2021/04/21 07:58:49;;;;;;;13.32;7.55;;;;;;;;;;4996856;28;20226;-71
2021/04/21 08:01:15;;;;;;;10.38;6.43;;;;;;;;;;4983658;28;20195;-71
2021/04/21 08:03:41;;;;;;;11.38;5.85;;;;;;;;;;5000790;28;20214;-70
2021/04/21 08:06:07;;;;;;;9.52;5.63;;;;;;;;;;4986745;28;20669;-70
2021/04/21 08:08:37;;;;;;;11.20;6.30;;;;;;;;;;4996465;28;20273;-70
2021/04/21 08:11:04;;;;;;;10.63;6.18;;;;;;;;;;4989142;28;20394;-71
2021/04/21 08:13:39;;;;;;;13.40;5.78;;;;;;;;;;4996210;28;20186;-70
2021/04/21 08:16:18;;;;;;;9.15;5.53;;;;;;;;;;4989391;28;20560;-71
2021/04/21 08:18:44;;;;;;;14.35;6.45;;;;;;;;;;4995248;28;20241;-70
2021/04/21 08:21:09;;;;;;;12.15;5.78;;;;;;;;;;4993618;28;20249;-70
2021/04/21 08:23:36;;;;;;;11.15;6.47;;;;;;;;;;4988297;28;20533;-70
2021/04/21 08:26:02;;;;;;;11.98;6.65;;;;;;;;;;4994271;28;20343;-70
2021/04/21 08:28:27;;;;;;;8.75;6.30;;;;;;;;;;4987275;28;20229;-71
2021/04/21 08:30:58;;;;;;;10.00;6.00;;;;;;;;;;4999661;28;20731;-70
2021/04/21 08:33:24;;;;;;;7.35;5.50;;;;;;;;;;4986271;28;20183;-69
2021/04/21 08:35:49;;;;;;;8.13;6.00;;;;;;;;;;4995882;28;20207;-70
2021/04/21 08:38:16;;;;;;;7.00;4.97;;;;;;;;;;4982703;28;20248;-70
2021/04/21 08:40:41;;;;;;;8.57;5.47;;;;;;;;;;4993693;28;20211;-70
2021/04/21 08:43:08;;;;;;;12.45;5.55;;;;;;;;;;4986364;28;20225;-70
2021/04/21 08:45:35;;;;;;;12.27;5.70;;;;;;;;;;5001914;28;20223;-70
2021/04/21 08:48:02;;;;;;;11.65;6.55;;;;;;;;;;4986225;28;20245;-70
2021/04/21 08:50:28;;;;;;;10.48;6.22;;;;;;;;;;4998012;28;20193;-70
2021/04/21 08:53:00;;;;;;;10.90;5.53;;;;;;;;;;5006763;28;20207;-70
2021/04/21 08:55:27;;;;;;;9.13;5.53;;;;;;;;;;4995938;28;20195;-70
2021/04/21 08:57:53;;;;;;;10.63;6.10;;;;;;;;;;4993558;28;20270;-70
2021/04/21 09:00:20;;;;;;;8.95;5.78;;;;;;;;;;4996089;28;20282;-70
2021/04/21 09:02:47;;;;;;;9.50;5.60;;;;;;;;;;4999904;28;20210;-70
2021/04/21 09:05:14;;;;;;;9.32;4.85;;;;;;;;;;4992473;28;20190;-70
2021/04/21 09:07:40;;;;;;;10.15;5.30;;;;;;;;;;4995613;28;20246;-70
2021/04/21 09:10:08;;;;;;;7.38;4.95;;;;;;;;;;4989660;28;20187;-71
2021/04/21 09:12:34;;;;;;;9.35;5.25;;;;;;;;;;4994330;28;20273;-70
2021/04/21 09:14:59;;;;;;;8.10;4.70;;;;;;;;;;4988820;28;20290;-70
2021/04/21 09:17:25;;;;;;;5.85;3.75;;;;;;;;;;4997926;28;20533;-71
2021/04/21 09:19:50;;;;;;;7.78;4.28;;;;;;;;;;5006227;28;20221;-69
2021/04/21 09:22:16;;;;;;;8.02;5.07;;;;;;;;;;4994908;28;20226;-69
2021/04/21 09:24:42;;;;;;;6.07;4.80;;;;;;;;;;4991746;28;20172;-70
2021/04/21 09:27:33;;;;;;;10.00;5.00;;;;;;;;;;4986556;28;20548;-70
2021/04/21 09:30:19;;;;;;;10.13;6.05;;;;;;;;;;5000116;28;20202;-70
2021/04/21 09:32:50;;;;;;;10.07;5.63;;;;;;;;;;4994538;28;20187;-70
2021/04/21 09:35:27;;;;;;;9.52;6.10;;;;;;;;;;5001690;28;20204;-70
2021/04/21 09:37:54;;;;;;;11.15;6.05;;;;;;;;;;4996637;28;20201;-70
2021/04/21 09:40:33;;;;;;;10.18;6.68;;;;;;;;;;4988402;28;20183;-70
2021/04/21 09:42:59;;;;;;;11.85;7.40;;;;;;;;;;4989617;28;20195;-70
2021/04/21 09:45:36;;;;;;;12.55;7.32;;;;;;;;;;5015996;28;20265;-70
2021/04/21 09:48:19;;;;;;;15.05;8.20;;;;;;;;;;4988086;28;20198;-70
2021/04/21 09:51:01;;;;;;;15.85;9.25;;;;;;;;;;5009379;28;20180;-70
2021/04/21 09:53:50;;;;;;;12.50;7.85;;;;;;;;;;4987796;28;20686;-70
2021/04/21 09:56:21;;;;;;;15.93;8.85;;;;;;;;;;5006316;28;20275;-70
2021/04/21 09:58:56;;;;;;;15.52;9.30;;;;;;;;;;4989218;28;20226;-70
2021/04/21 10:01:29;;;;;;;14.30;9.90;;;;;;;;;;4995200;28;20187;-70
2021/04/21 10:04:16;;;;;;;15.02;9.57;;;;;;;;;;4989253;28;20296;-70
2021/04/21 10:06:54;;;;;;;21.25;10.23;;;;;;;;;;4997153;28;20197;-70
2021/04/21 10:09:37;;;;;;;17.13;10.25;;;;;;;;;;4990414;28;20232;-70
2021/04/21 10:12:39;;;;;;;19.70;12.15;;;;;;;;;;4993530;28;20302;-70
2021/04/21 10:15:08;;;;;;;22.60;14.75;;;;;;;;;;4946769;28;20275;-70
2021/04/21 10:17:36;;;;;;;24.98;15.27;;;;;;;;;;4975929;28;20597;-70
2021/04/21 10:20:05;;;;;;;26.02;16.67;;;;;;;;;;4994676;28;20179;-70
2021/04/21 10:22:31;;;;;;;27.88;16.48;;;;;;;;;;4997244;28;20643;-70
2021/04/21 10:24:58;;;;;;;28.40;18.02;;;;;;;;;;4985395;28;20180;-70
2021/04/21 10:27:23;;;;;;;25.90;15.05;;;;;;;;;;4994161;28;20188;-70
2021/04/21 10:29:49;;;;;;;23.77;15.40;;;;;;;;;;4988012;28;20178;-70
2021/04/21 10:32:15;;;;;;;23.30;14.70;;;;;;;;;;4993326;28;20215;-70
2021/04/21 10:34:43;;;;;;;22.90;14.70;;;;;;;;;;4992419;28;20230;-71
2021/04/21 10:37:10;;;;;;;24.60;15.40;;;;;;;;;;4991241;28;20272;-72
2021/04/21 10:39:37;;;;;;;25.30;16.17;;;;;;;;;;4989390;28;20195;-71
2021/04/21 10:42:07;;;;;;;25.45;16.42;;;;;;;;;;4994937;28;20545;-69
2021/04/21 10:44:34;;;;;;;22.92;15.00;;;;;;;;;;4982770;28;20223;-70
2021/04/21 10:47:02;;;;;;;24.60;16.83;;;;;;;;;;4992204;28;20189;-70
2021/04/21 10:50:01;;;;;;;29.42;17.17;;;;;;;;;;4981741;28;20187;-70
2021/04/21 10:52:26;;;;;;;28.58;18.45;;;;;;;;;;4983555;28;20207;-70
2021/04/21 10:54:58;;;;;;;27.27;17.70;;;;;;;;;;4994235;28;20213;-70
2021/04/21 10:57:26;;;;;;;27.20;16.77;;;;;;;;;;4996426;28;20238;-70
2021/04/21 11:00:11;;;;;;;24.08;15.55;;;;;;;;;;4983139;28;20191;-70
2021/04/21 11:02:46;;;;;;;26.75;16.33;;;;;;;;;;4994485;28;20233;-71
2021/04/21 11:05:12;;;;;;;26.30;15.85;;;;;;;;;;4985195;28;20190;-71
2021/04/21 11:07:39;;;;;;;28.63;15.70;;;;;;;;;;4992334;28;20187;-71
2021/04/21 11:10:29;;;;;;;28.48;16.85;;;;;;;;;;4986578;28;20190;-71
2021/04/21 11:12:55;;;;;;;27.02;16.48;;;;;;;;;;4991497;28;20199;-70
2021/04/21 11:15:34;;;;;;;27.83;16.58;;;;;;;;;;4984508;28;20217;-70
2021/04/21 11:18:11;;;;;;;23.90;15.18;;;;;;;;;;4990783;28;20265;-70
2021/04/21 11:20:46;;;;;;;24.63;16.38;;;;;;;;;;5000206;28;20257;-71
2021/04/21 11:23:59;;;;;;;26.63;16.75;;;;;;;;;;4991218;28;20187;-71
2021/04/21 11:29:35;;;;;;;29.83;17.98;;;;;;;;;;4989834;28;20317;-70
2021/04/21 11:32:00;;;;;;;26.50;16.63;;;;;;;;;;4981217;28;20215;-70
2021/04/21 11:34:34;;;;;;;28.58;18.02;;;;;;;;;;4984985;28;20623;-71
2021/04/21 11:37:11;;;;;;;30.90;17.70;;;;;;;;;;4981240;28;20943;-71
2021/04/21 11:39:42;;;;;;;26.40;16.63;;;;;;;;;;4995800;28;20179;-70
2021/04/21 11:42:30;;;;;;;24.20;14.70;;;;;;;;;;4981378;28;20209;-70
2021/04/21 11:44:57;;;;;;;21.27;13.93;;;;;;;;;;4984076;28;20235;-70
2021/04/21 11:47:33;;;;;;;25.38;14.93;;;;;;;;;;4980838;28;20569;-70
2021/04/21 11:49:58;;;;;;;22.90;12.55;;;;;;;;;;4997151;28;20631;-69
2021/04/21 11:53:02;;;;;;;20.10;11.68;;;;;;;;;;4981916;28;20234;-70
2021/04/21 11:56:02;;;;;;;16.38;9.95;;;;;;;;;;4989159;28;20571;-69
2021/04/21 11:58:32;;;;;;;17.30;10.73;;;;;;;;;;4959653;28;20203;-70
2021/04/21 12:01:01;;;;;;;14.98;9.68;;;;;;;;;;4985799;28;20187;-71
2021/04/21 12:03:38;;;;;;;11.77;7.20;;;;;;;;;;4979405;28;20211;-71
2021/04/21 12:06:06;;;;;;;7.43;5.20;;;;;;;;;;4985566;28;20198;-70
2021/04/21 12:08:45;;;;;;;10.02;5.43;;;;;;;;;;4980149;28;20549;-70
2021/04/21 12:11:10;;;;;;;8.52;5.82;;;;;;;;;;4984114;28;20533;-71
2021/04/21 12:13:39;;;;;;;7.75;5.22;;;;;;;;;;4976771;28;20583;-71
2021/04/21 12:16:10;;;;;;;10.15;6.00;;;;;;;;;;4989739;28;20233;-70
2021/04/21 12:18:39;;;;;;;9.18;6.10;;;;;;;;;;4981435;28;20879;-70
2021/04/21 12:21:20;;;;;;;10.10;5.05;;;;;;;;;;4989474;28;20205;-70
2021/04/21 12:23:52;;;;;;;7.65;5.53;;;;;;;;;;4987162;28;20180;-70
2021/04/21 12:26:19;;;;;;;7.85;4.25;;;;;;;;;;4984076;28;20178;-71
2021/04/21 12:28:47;;;;;;;10.40;4.55;;;;;;;;;;4989863;28;20211;-70
2021/04/21 12:31:13;;;;;;;7.13;3.80;;;;;;;;;;4977789;28;20218;-70
2021/04/21 12:33:38;;;;;;;7.65;3.60;;;;;;;;;;4990353;28;20647;-70
2021/04/21 12:36:04;;;;;;;7.18;3.55;;;;;;;;;;4989045;28;20337;-70
2021/04/21 12:38:32;;;;;;;7.30;3.60;;;;;;;;;;4998647;28;20237;-70
2021/04/21 12:40:59;;;;;;;7.53;3.33;;;;;;;;;;4983708;28;20210;-70
2021/04/21 12:43:27;;;;;;;6.93;2.90;;;;;;;;;;4992339;28;20262;-70
2021/04/21 12:45:53;;;;;;;7.22;3.30;;;;;;;;;;4985077;28;20277;-70
2021/04/21 12:48:26;;;;;;;6.30;2.70;;;;;;;;;;4993712;28;21249;-70
2021/04/21 12:50:55;;;;;;;10.65;3.28;;;;;;;;;;4982900;28;20277;-70
2021/04/21 12:53:22;;;;;;;8.07;3.20;;;;;;;;;;4998750;28;20205;-70
2021/04/21 12:55:49;;;;;;;5.53;3.17;;;;;;;;;;4985142;28;20204;-70
2021/04/21 12:58:31;;;;;;;7.28;2.83;;;;;;;;;;4998975;28;20619;-70
2021/04/21 13:01:10;;;;;;;7.45;2.95;;;;;;;;;;4982501;28;20549;-70
2021/04/21 13:03:36;;;;;;;9.68;2.92;;;;;;;;;;5001961;28;20234;-70
2021/04/21 13:06:02;;;;;;;7.07;2.47;;;;;;;;;;4995112;28;20191;-70
2021/04/21 13:08:29;;;;;;;10.07;2.55;;;;;;;;;;4984172;28;20841;-70
2021/04/21 13:10:56;;;;;;;7.35;2.58;;;;;;;;;;4994295;28;20428;-70
2021/04/21 13:13:24;;;;;;;5.32;2.13;;;;;;;;;;4983769;28;20496;-70
2021/04/21 13:15:50;;;;;;;8.07;2.22;;;;;;;;;;4995506;28;20227;-70
2021/04/21 13:18:15;;;;;;;7.55;2.22;;;;;;;;;;4984295;28;20194;-69
2021/04/21 13:20:42;;;;;;;8.52;2.47;;;;;;;;;;4992292;28;20219;-70
2021/04/21 13:23:24;;;;;;;7.35;2.10;;;;;;;;;;4983800;28;20314;-70
2021/04/21 13:26:03;;;;;;;7.53;2.00;;;;;;;;;;4992673;28;20175;-71
2021/04/21 13:28:38;;;;;;;9.43;2.25;;;;;;;;;;4986181;28;20203;-71
2021/04/21 13:31:08;;;;;;;8.88;2.15;;;;;;;;;;4991327;28;20298;-71
2021/04/21 13:33:35;;;;;;;8.90;2.45;;;;;;;;;;4986407;28;20208;-69
2021/04/21 13:36:00;;;;;;;10.73;2.72;;;;;;;;;;4992704;28;20294;-70
2021/04/21 13:38:26;;;;;;;7.18;2.83;;;;;;;;;;4984912;28;20302;-71
2021/04/21 13:40:53;;;;;;;11.77;3.15;;;;;;;;;;4993879;28;20267;-70
2021/04/21 13:43:18;;;;;;;11.93;3.05;;;;;;;;;;4992553;28;20706;-70
2021/04/21 13:45:43;;;;;;;7.18;2.85;;;;;;;;;;4989361;28;20247;-70
2021/04/21 13:48:09;;;;;;;11.38;3.10;;;;;;;;;;4989836;28;20582;-70
2021/04/21 13:50:34;;;;;;;10.27;2.90;;;;;;;;;;4987955;28;20199;-70
2021/04/21 13:53:00;;;;;;;12.43;3.30;;;;;;;;;;4997616;28;20174;-69
2021/04/21 13:55:25;;;;;;;10.10;2.58;;;;;;;;;;4984249;28;20264;-70
2021/04/21 13:57:50;;;;;;;12.57;2.80;;;;;;;;;;4995231;28;20210;-69
2021/04/21 14:00:16;;;;;;;17.10;3.30;;;;;;;;;;4981882;28;20278;-70
2021/04/21 14:02:42;;;;;;;15.95;3.58;;;;;;;;;;4993269;28;20219;-71
2021/04/21 14:05:08;;;;;;;9.25;3.10;;;;;;;;;;4984195;28;20176;-71
2021/04/21 14:07:34;;;;;;;11.18;3.30;;;;;;;;;;4995658;28;20175;-68
2021/04/21 14:09:59;;;;;;;10.57;3.58;;;;;;;;;;4987057;28;20190;-71
2021/04/21 14:12:24;;;;;;;13.00;3.97;;;;;;;;;;4993423;28;20198;-69
2021/04/21 14:14:50;;;;;;;12.07;3.90;;;;;;;;;;4290921;28;10000755;-69
2021/04/21 14:17:16;;;;;;;11.95;3.88;;;;;;;;;;4986613;28;20188;-70
2021/04/21 14:19:41;;;;;;;10.32;3.78;;;;;;;;;;4992997;28;20313;-70
2021/04/21 14:22:07;;;;;;;13.88;3.97;;;;;;;;;;4997754;28;20673;-70
2021/04/21 14:24:33;;;;;;;11.75;3.92;;;;;;;;;;4992472;28;20188;-70
2021/04/21 14:26:58;;;;;;;9.38;2.83;;;;;;;;;;4985045;28;20274;-69
2021/04/21 14:29:24;;;;;;;10.23;2.60;;;;;;;;;;4990465;28;20321;-70
2021/04/21 14:31:50;;;;;;;13.82;3.00;;;;;;;;;;4981887;28;20299;-70
2021/04/21 14:34:16;;;;;;;10.95;2.50;;;;;;;;;;4990923;28;20211;-70
2021/04/21 14:36:42;;;;;;;14.57;2.38;;;;;;;;;;4979863;28;20187;-71
2021/04/21 14:39:08;;;;;;;14.93;3.17;;;;;;;;;;4988509;28;20222;-71
2021/04/21 14:41:38;;;;;;;10.95;2.25;;;;;;;;;;4976319;28;20250;-70
2021/04/21 14:44:04;;;;;;;16.95;3.50;;;;;;;;;;4988951;28;20247;-70
2021/04/21 14:46:29;;;;;;;17.33;3.28;;;;;;;;;;4980399;28;20867;-69
2021/04/21 14:48:55;;;;;;;9.20;2.58;;;;;;;;;;4987885;28;20187;-70
2021/04/21 14:51:20;;;;;;;12.45;2.90;;;;;;;;;;4982743;28;20214;-70
2021/04/21 14:53:46;;;;;;;12.27;3.75;;;;;;;;;;4986740;28;20208;-70
2021/04/21 14:56:12;;;;;;;13.25;3.60;;;;;;;;;;4987578;28;20608;-70